sensor_id;sensor_type;location;lat;lon;timestamp;P1;durP1;ratioP1;P2;durP2;ratioP2
16504;SDS011;8365;51.030;4.696;2023-04-24T00:01:21;22.83;;;14.93;;
16504;SDS011;8365;51.030;4.696;2023-04-24T00:03:52;17.47;;;14.17;;
16504;SDS011;8365;51.030;4.696;2023-04-24T00:06:22;21.83;;;14.30;;
16504;SDS011;8365;51.030;4.696;2023-04-24T00:08:53;20.80;;;15.33;;
16504;SDS011;8365;51.030;4.696;2023-04-24T00:11:24;22.47;;;15.93;;
16504;SDS011;8365;51.030;4.696;2023-04-24T00:13:54;19.47;;;15.60;;
16504;SDS011;8365;51.030;4.696;2023-04-24T00:16:26;18.73;;;15.57;;
16504;SDS011;8365;51.030;4.696;2023-04-24T00:18:58;21.63;;;15.60;;
16504;SDS011;8365;51.030;4.696;2023-04-24T00:21:30;18.33;;;14.97;;
16504;SDS011;8365;51.030;4.696;2023-04-24T00:24:02;23.77;;;16.57;;
16504;SDS011;8365;51.030;4.696;2023-04-24T00:26:33;22.10;;;15.87;;
16504;SDS011;8365;51.030;4.696;2023-04-24T00:29:03;23.07;;;15.50;;
16504;SDS011;8365;51.030;4.696;2023-04-24T00:31:34;18.67;;;16.67;;
16504;SDS011;8365;51.030;4.696;2023-04-24T00:34:05;19.70;;;15.70;;
16504;SDS011;8365;51.030;4.696;2023-04-24T00:36:35;18.90;;;16.00;;
16504;SDS011;8365;51.030;4.696;2023-04-24T00:39:06;22.73;;;16.10;;
16504;SDS011;8365;51.030;4.696;2023-04-24T00:41:38;20.53;;;16.63;;
16504;SDS011;8365;51.030;4.696;2023-04-24T00:44:09;20.30;;;17.50;;
16504;SDS011;8365;51.030;4.696;2023-04-24T00:46:39;21.77;;;16.30;;
16504;SDS011;8365;51.030;4.696;2023-04-24T00:49:10;23.33;;;15.80;;
16504;SDS011;8365;51.030;4.696;2023-04-24T00:51:42;21.77;;;16.87;;
16504;SDS011;8365;51.030;4.696;2023-04-24T00:54:15;18.20;;;15.57;;
16504;SDS011;8365;51.030;4.696;2023-04-24T00:56:46;21.63;;;16.23;;
16504;SDS011;8365;51.030;4.696;2023-04-24T00:59:17;24.03;;;16.73;;
16504;SDS011;8365;51.030;4.696;2023-04-24T01:01:48;19.57;;;16.00;;
16504;SDS011;8365;51.030;4.696;2023-04-24T01:04:18;17.83;;;14.77;;
16504;SDS011;8365;51.030;4.696;2023-04-24T01:06:49;19.83;;;15.27;;
16504;SDS011;8365;51.030;4.696;2023-04-24T01:09:23;19.70;;;15.67;;
16504;SDS011;8365;51.030;4.696;2023-04-24T01:11:54;22.50;;;16.00;;
16504;SDS011;8365;51.030;4.696;2023-04-24T01:14:24;22.07;;;15.43;;
16504;SDS011;8365;51.030;4.696;2023-04-24T01:16:55;18.33;;;14.30;;
16504;SDS011;8365;51.030;4.696;2023-04-24T01:19:27;18.70;;;15.47;;
16504;SDS011;8365;51.030;4.696;2023-04-24T01:21:58;20.57;;;15.37;;
16504;SDS011;8365;51.030;4.696;2023-04-24T01:24:31;22.10;;;15.10;;
16504;SDS011;8365;51.030;4.696;2023-04-24T01:27:02;17.43;;;14.53;;
16504;SDS011;8365;51.030;4.696;2023-04-24T01:29:33;19.50;;;15.13;;
16504;SDS011;8365;51.030;4.696;2023-04-24T01:32:04;18.73;;;15.57;;
16504;SDS011;8365;51.030;4.696;2023-04-24T01:34:35;22.57;;;16.07;;
16504;SDS011;8365;51.030;4.696;2023-04-24T01:37:06;19.00;;;15.43;;
16504;SDS011;8365;51.030;4.696;2023-04-24T01:39:36;23.37;;;15.60;;
16504;SDS011;8365;51.030;4.696;2023-04-24T01:42:09;21.23;;;15.63;;
16504;SDS011;8365;51.030;4.696;2023-04-24T01:44:40;19.87;;;16.27;;
16504;SDS011;8365;51.030;4.696;2023-04-24T01:47:13;19.97;;;14.87;;
16504;SDS011;8365;51.030;4.696;2023-04-24T01:49:44;18.20;;;14.93;;
16504;SDS011;8365;51.030;4.696;2023-04-24T01:52:16;18.83;;;15.53;;
16504;SDS011;8365;51.030;4.696;2023-04-24T01:54:47;21.37;;;15.17;;
16504;SDS011;8365;51.030;4.696;2023-04-24T01:57:18;17.90;;;14.30;;
16504;SDS011;8365;51.030;4.696;2023-04-24T01:59:48;18.43;;;15.00;;
16504;SDS011;8365;51.030;4.696;2023-04-24T02:02:19;21.63;;;15.57;;
16504;SDS011;8365;51.030;4.696;2023-04-24T02:04:51;23.20;;;14.80;;
16504;SDS011;8365;51.030;4.696;2023-04-24T02:07:21;16.47;;;13.97;;
16504;SDS011;8365;51.030;4.696;2023-04-24T02:09:52;19.13;;;14.90;;
16504;SDS011;8365;51.030;4.696;2023-04-24T02:12:22;15.77;;;13.63;;
16504;SDS011;8365;51.030;4.696;2023-04-24T02:14:53;17.60;;;14.83;;
16504;SDS011;8365;51.030;4.696;2023-04-24T02:17:23;15.47;;;13.70;;
16504;SDS011;8365;51.030;4.696;2023-04-24T02:19:54;15.40;;;13.27;;
16504;SDS011;8365;51.030;4.696;2023-04-24T02:22:24;15.77;;;13.37;;
16504;SDS011;8365;51.030;4.696;2023-04-24T02:24:55;17.63;;;12.73;;
16504;SDS011;8365;51.030;4.696;2023-04-24T02:27:25;14.23;;;12.73;;
16504;SDS011;8365;51.030;4.696;2023-04-24T02:29:55;14.90;;;12.13;;
16504;SDS011;8365;51.030;4.696;2023-04-24T02:32:26;15.40;;;13.73;;
16504;SDS011;8365;51.030;4.696;2023-04-24T02:34:59;13.73;;;11.80;;
16504;SDS011;8365;51.030;4.696;2023-04-24T02:37:29;14.13;;;12.50;;
16504;SDS011;8365;51.030;4.696;2023-04-24T02:40:00;14.57;;;12.03;;
16504;SDS011;8365;51.030;4.696;2023-04-24T02:42:30;15.40;;;11.47;;
16504;SDS011;8365;51.030;4.696;2023-04-24T02:45:03;15.33;;;11.77;;
16504;SDS011;8365;51.030;4.696;2023-04-24T02:47:35;15.20;;;12.33;;
16504;SDS011;8365;51.030;4.696;2023-04-24T02:50:05;15.23;;;11.83;;
16504;SDS011;8365;51.030;4.696;2023-04-24T02:52:36;16.00;;;12.80;;
16504;SDS011;8365;51.030;4.696;2023-04-24T02:55:07;14.37;;;12.43;;
16504;SDS011;8365;51.030;4.696;2023-04-24T02:57:38;19.13;;;14.07;;
16504;SDS011;8365;51.030;4.696;2023-04-24T03:00:08;16.07;;;13.40;;
16504;SDS011;8365;51.030;4.696;2023-04-24T03:02:39;17.30;;;13.77;;
16504;SDS011;8365;51.030;4.696;2023-04-24T03:05:10;18.73;;;13.63;;
16504;SDS011;8365;51.030;4.696;2023-04-24T03:07:42;17.17;;;13.30;;
16504;SDS011;8365;51.030;4.696;2023-04-24T03:10:12;18.07;;;13.87;;
16504;SDS011;8365;51.030;4.696;2023-04-24T03:12:43;18.40;;;15.00;;
16504;SDS011;8365;51.030;4.696;2023-04-24T03:15:13;17.03;;;15.17;;
16504;SDS011;8365;51.030;4.696;2023-04-24T03:17:44;17.47;;;13.73;;
16504;SDS011;8365;51.030;4.696;2023-04-24T03:20:15;17.07;;;14.03;;
16504;SDS011;8365;51.030;4.696;2023-04-24T03:22:45;15.90;;;14.13;;
16504;SDS011;8365;51.030;4.696;2023-04-24T03:25:16;19.37;;;14.37;;
16504;SDS011;8365;51.030;4.696;2023-04-24T03:27:46;19.07;;;14.67;;
16504;SDS011;8365;51.030;4.696;2023-04-24T03:30:17;18.87;;;14.63;;
16504;SDS011;8365;51.030;4.696;2023-04-24T03:32:47;18.10;;;13.53;;
16504;SDS011;8365;51.030;4.696;2023-04-24T03:35:18;20.67;;;15.07;;
16504;SDS011;8365;51.030;4.696;2023-04-24T03:37:48;18.50;;;15.70;;
16504;SDS011;8365;51.030;4.696;2023-04-24T03:40:19;17.17;;;15.30;;
16504;SDS011;8365;51.030;4.696;2023-04-24T03:42:49;19.27;;;14.70;;
16504;SDS011;8365;51.030;4.696;2023-04-24T03:45:20;16.73;;;14.47;;
16504;SDS011;8365;51.030;4.696;2023-04-24T03:47:51;18.47;;;14.63;;
16504;SDS011;8365;51.030;4.696;2023-04-24T03:50:21;15.53;;;13.90;;
16504;SDS011;8365;51.030;4.696;2023-04-24T03:52:54;18.23;;;14.43;;
16504;SDS011;8365;51.030;4.696;2023-04-24T03:55:24;17.60;;;14.53;;
16504;SDS011;8365;51.030;4.696;2023-04-24T03:57:55;15.90;;;13.40;;
16504;SDS011;8365;51.030;4.696;2023-04-24T04:00:25;15.20;;;12.97;;
16504;SDS011;8365;51.030;4.696;2023-04-24T04:02:56;13.30;;;11.87;;
16504;SDS011;8365;51.030;4.696;2023-04-24T04:05:29;14.53;;;12.57;;
16504;SDS011;8365;51.030;4.696;2023-04-24T04:07:59;17.13;;;12.77;;
16504;SDS011;8365;51.030;4.696;2023-04-24T04:10:30;18.23;;;13.00;;
16504;SDS011;8365;51.030;4.696;2023-04-24T04:13:01;15.13;;;11.20;;
16504;SDS011;8365;51.030;4.696;2023-04-24T04:15:31;12.83;;;11.50;;
16504;SDS011;8365;51.030;4.696;2023-04-24T04:18:02;12.63;;;11.10;;
16504;SDS011;8365;51.030;4.696;2023-04-24T04:20:32;14.53;;;11.43;;
16504;SDS011;8365;51.030;4.696;2023-04-24T04:23:03;14.07;;;11.30;;
16504;SDS011;8365;51.030;4.696;2023-04-24T04:25:33;12.50;;;10.10;;
16504;SDS011;8365;51.030;4.696;2023-04-24T04:28:04;12.10;;;9.80;;
16504;SDS011;8365;51.030;4.696;2023-04-24T04:30:35;12.17;;;10.27;;
16504;SDS011;8365;51.030;4.696;2023-04-24T04:33:08;11.03;;;9.90;;
16504;SDS011;8365;51.030;4.696;2023-04-24T04:35:38;11.73;;;8.47;;
16504;SDS011;8365;51.030;4.696;2023-04-24T04:38:09;12.60;;;8.50;;
16504;SDS011;8365;51.030;4.696;2023-04-24T04:40:42;9.87;;;8.03;;
16504;SDS011;8365;51.030;4.696;2023-04-24T04:43:15;9.27;;;8.27;;
16504;SDS011;8365;51.030;4.696;2023-04-24T04:45:46;8.80;;;6.40;;
16504;SDS011;8365;51.030;4.696;2023-04-24T04:48:18;8.93;;;7.67;;
16504;SDS011;8365;51.030;4.696;2023-04-24T04:50:48;7.37;;;6.00;;
16504;SDS011;8365;51.030;4.696;2023-04-24T04:53:19;7.40;;;6.40;;
16504;SDS011;8365;51.030;4.696;2023-04-24T04:55:49;8.67;;;6.80;;
16504;SDS011;8365;51.030;4.696;2023-04-24T04:58:20;9.00;;;6.90;;
16504;SDS011;8365;51.030;4.696;2023-04-24T05:00:53;12.27;;;7.43;;
16504;SDS011;8365;51.030;4.696;2023-04-24T05:03:23;11.17;;;8.80;;
16504;SDS011;8365;51.030;4.696;2023-04-24T05:05:54;11.80;;;8.97;;
16504;SDS011;8365;51.030;4.696;2023-04-24T05:08:24;11.93;;;10.00;;
16504;SDS011;8365;51.030;4.696;2023-04-24T05:10:57;14.57;;;9.73;;
16504;SDS011;8365;51.030;4.696;2023-04-24T05:13:28;15.17;;;11.30;;
16504;SDS011;8365;51.030;4.696;2023-04-24T05:15:58;15.73;;;11.80;;
16504;SDS011;8365;51.030;4.696;2023-04-24T05:18:29;16.97;;;11.67;;
16504;SDS011;8365;51.030;4.696;2023-04-24T05:21:00;14.90;;;11.90;;
16504;SDS011;8365;51.030;4.696;2023-04-24T05:23:31;16.40;;;12.90;;
16504;SDS011;8365;51.030;4.696;2023-04-24T05:26:01;16.03;;;11.63;;
16504;SDS011;8365;51.030;4.696;2023-04-24T05:28:32;16.27;;;12.63;;
16504;SDS011;8365;51.030;4.696;2023-04-24T05:31:02;17.90;;;12.50;;
16504;SDS011;8365;51.030;4.696;2023-04-24T05:33:33;17.77;;;13.77;;
16504;SDS011;8365;51.030;4.696;2023-04-24T05:36:04;15.10;;;12.80;;
16504;SDS011;8365;51.030;4.696;2023-04-24T05:38:36;17.93;;;13.20;;
16504;SDS011;8365;51.030;4.696;2023-04-24T05:41:06;15.80;;;12.63;;
16504;SDS011;8365;51.030;4.696;2023-04-24T05:43:37;18.27;;;13.67;;
16504;SDS011;8365;51.030;4.696;2023-04-24T05:46:07;17.83;;;13.27;;
16504;SDS011;8365;51.030;4.696;2023-04-24T05:48:37;19.80;;;14.60;;
16504;SDS011;8365;51.030;4.696;2023-04-24T05:51:10;15.87;;;12.87;;
16504;SDS011;8365;51.030;4.696;2023-04-24T05:53:41;15.20;;;12.60;;
16504;SDS011;8365;51.030;4.696;2023-04-24T05:56:11;14.57;;;11.50;;
16504;SDS011;8365;51.030;4.696;2023-04-24T05:58:41;17.40;;;12.03;;
16504;SDS011;8365;51.030;4.696;2023-04-24T06:01:14;22.30;;;13.83;;
16504;SDS011;8365;51.030;4.696;2023-04-24T06:03:45;16.10;;;12.97;;
16504;SDS011;8365;51.030;4.696;2023-04-24T06:06:16;17.90;;;13.63;;
16504;SDS011;8365;51.030;4.696;2023-04-24T06:08:49;17.57;;;13.30;;
16504;SDS011;8365;51.030;4.696;2023-04-24T06:11:20;20.77;;;13.80;;
16504;SDS011;8365;51.030;4.696;2023-04-24T06:13:50;18.00;;;13.47;;
16504;SDS011;8365;51.030;4.696;2023-04-24T06:16:22;22.20;;;14.03;;
16504;SDS011;8365;51.030;4.696;2023-04-24T06:18:52;21.33;;;14.47;;
16504;SDS011;8365;51.030;4.696;2023-04-24T06:21:22;22.17;;;15.20;;
16504;SDS011;8365;51.030;4.696;2023-04-24T06:23:53;23.80;;;15.13;;
16504;SDS011;8365;51.030;4.696;2023-04-24T06:26:24;21.00;;;14.57;;
16504;SDS011;8365;51.030;4.696;2023-04-24T06:28:56;22.83;;;15.40;;
16504;SDS011;8365;51.030;4.696;2023-04-24T06:31:29;22.20;;;16.00;;
16504;SDS011;8365;51.030;4.696;2023-04-24T06:34:02;23.50;;;15.63;;
16504;SDS011;8365;51.030;4.696;2023-04-24T06:36:32;19.40;;;15.17;;
16504;SDS011;8365;51.030;4.696;2023-04-24T06:39:04;22.30;;;15.40;;
16504;SDS011;8365;51.030;4.696;2023-04-24T06:41:35;22.10;;;15.53;;
16504;SDS011;8365;51.030;4.696;2023-04-24T06:44:05;22.23;;;15.80;;
16504;SDS011;8365;51.030;4.696;2023-04-24T06:46:36;20.83;;;15.93;;
16504;SDS011;8365;51.030;4.696;2023-04-24T06:49:06;24.90;;;17.00;;
16504;SDS011;8365;51.030;4.696;2023-04-24T06:51:37;21.60;;;16.83;;
16504;SDS011;8365;51.030;4.696;2023-04-24T06:54:07;22.83;;;17.00;;
16504;SDS011;8365;51.030;4.696;2023-04-24T06:56:37;23.13;;;17.37;;
16504;SDS011;8365;51.030;4.696;2023-04-24T06:59:08;24.43;;;17.83;;
16504;SDS011;8365;51.030;4.696;2023-04-24T07:01:38;24.60;;;17.63;;
16504;SDS011;8365;51.030;4.696;2023-04-24T07:04:09;25.67;;;18.63;;
16504;SDS011;8365;51.030;4.696;2023-04-24T07:06:39;23.47;;;17.97;;
16504;SDS011;8365;51.030;4.696;2023-04-24T07:09:10;22.47;;;17.93;;
16504;SDS011;8365;51.030;4.696;2023-04-24T07:11:40;27.23;;;18.20;;
16504;SDS011;8365;51.030;4.696;2023-04-24T07:14:11;25.30;;;17.53;;
16504;SDS011;8365;51.030;4.696;2023-04-24T07:16:42;24.27;;;17.13;;
16504;SDS011;8365;51.030;4.696;2023-04-24T07:19:13;22.87;;;16.30;;
16504;SDS011;8365;51.030;4.696;2023-04-24T07:21:43;23.40;;;17.93;;
16504;SDS011;8365;51.030;4.696;2023-04-24T07:24:14;25.23;;;17.63;;
16504;SDS011;8365;51.030;4.696;2023-04-24T07:26:45;21.30;;;14.97;;
16504;SDS011;8365;51.030;4.696;2023-04-24T07:29:16;20.90;;;15.27;;
16504;SDS011;8365;51.030;4.696;2023-04-24T07:31:46;20.07;;;14.43;;
16504;SDS011;8365;51.030;4.696;2023-04-24T07:34:17;19.87;;;13.67;;
16504;SDS011;8365;51.030;4.696;2023-04-24T07:36:47;19.67;;;12.90;;
16504;SDS011;8365;51.030;4.696;2023-04-24T07:39:18;17.67;;;11.10;;
16504;SDS011;8365;51.030;4.696;2023-04-24T07:41:48;15.23;;;10.93;;
16504;SDS011;8365;51.030;4.696;2023-04-24T07:44:19;15.97;;;9.90;;
16504;SDS011;8365;51.030;4.696;2023-04-24T07:46:50;14.73;;;9.83;;
16504;SDS011;8365;51.030;4.696;2023-04-24T07:49:23;17.13;;;9.23;;
16504;SDS011;8365;51.030;4.696;2023-04-24T07:51:53;14.20;;;8.07;;
16504;SDS011;8365;51.030;4.696;2023-04-24T07:54:24;9.87;;;6.97;;
16504;SDS011;8365;51.030;4.696;2023-04-24T07:56:54;11.57;;;7.20;;
16504;SDS011;8365;51.030;4.696;2023-04-24T07:59:25;11.97;;;6.93;;
16504;SDS011;8365;51.030;4.696;2023-04-24T08:01:57;9.73;;;6.47;;
16504;SDS011;8365;51.030;4.696;2023-04-24T08:04:28;11.17;;;6.83;;
16504;SDS011;8365;51.030;4.696;2023-04-24T08:06:58;13.50;;;7.40;;
16504;SDS011;8365;51.030;4.696;2023-04-24T08:09:29;11.87;;;7.03;;
16504;SDS011;8365;51.030;4.696;2023-04-24T08:11:59;10.33;;;7.33;;
16504;SDS011;8365;51.030;4.696;2023-04-24T08:14:31;10.00;;;6.03;;
16504;SDS011;8365;51.030;4.696;2023-04-24T08:17:01;10.93;;;6.40;;
16504;SDS011;8365;51.030;4.696;2023-04-24T08:19:32;12.33;;;6.70;;
16504;SDS011;8365;51.030;4.696;2023-04-24T08:22:02;15.03;;;7.17;;
16504;SDS011;8365;51.030;4.696;2023-04-24T08:24:34;13.77;;;7.00;;
16504;SDS011;8365;51.030;4.696;2023-04-24T08:27:06;16.23;;;6.67;;
16504;SDS011;8365;51.030;4.696;2023-04-24T08:29:38;10.53;;;6.47;;
16504;SDS011;8365;51.030;4.696;2023-04-24T08:32:11;11.93;;;7.50;;
16504;SDS011;8365;51.030;4.696;2023-04-24T08:34:42;14.37;;;8.00;;
16504;SDS011;8365;51.030;4.696;2023-04-24T08:37:12;15.33;;;8.73;;
16504;SDS011;8365;51.030;4.696;2023-04-24T08:39:43;12.60;;;8.37;;
16504;SDS011;8365;51.030;4.696;2023-04-24T08:42:13;16.20;;;8.93;;
16504;SDS011;8365;51.030;4.696;2023-04-24T08:44:45;15.77;;;10.57;;
16504;SDS011;8365;51.030;4.696;2023-04-24T08:47:18;18.53;;;9.80;;
16504;SDS011;8365;51.030;4.696;2023-04-24T08:49:50;15.27;;;10.00;;
16504;SDS011;8365;51.030;4.696;2023-04-24T08:52:21;19.63;;;11.50;;
16504;SDS011;8365;51.030;4.696;2023-04-24T08:54:52;19.30;;;10.43;;
16504;SDS011;8365;51.030;4.696;2023-04-24T08:57:24;18.00;;;11.13;;
16504;SDS011;8365;51.030;4.696;2023-04-24T08:59:56;13.87;;;8.70;;
16504;SDS011;8365;51.030;4.696;2023-04-24T09:02:28;12.27;;;8.30;;
16504;SDS011;8365;51.030;4.696;2023-04-24T09:05:02;18.27;;;8.97;;
16504;SDS011;8365;51.030;4.696;2023-04-24T09:07:34;21.43;;;10.03;;
16504;SDS011;8365;51.030;4.696;2023-04-24T09:10:06;17.70;;;10.13;;
16504;SDS011;8365;51.030;4.696;2023-04-24T09:12:39;20.07;;;11.17;;
16504;SDS011;8365;51.030;4.696;2023-04-24T09:15:11;17.47;;;10.87;;
16504;SDS011;8365;51.030;4.696;2023-04-24T09:17:43;15.87;;;10.07;;
16504;SDS011;8365;51.030;4.696;2023-04-24T09:20:13;18.40;;;9.30;;
16504;SDS011;8365;51.030;4.696;2023-04-24T09:22:44;15.73;;;9.43;;
16504;SDS011;8365;51.030;4.696;2023-04-24T09:25:15;17.93;;;9.70;;
16504;SDS011;8365;51.030;4.696;2023-04-24T09:27:46;15.23;;;9.87;;
16504;SDS011;8365;51.030;4.696;2023-04-24T09:30:20;16.53;;;9.00;;
16504;SDS011;8365;51.030;4.696;2023-04-24T09:33:12;19.27;;;9.93;;
16504;SDS011;8365;51.030;4.696;2023-04-24T09:35:49;21.07;;;11.07;;
16504;SDS011;8365;51.030;4.696;2023-04-24T09:38:22;15.60;;;11.00;;
16504;SDS011;8365;51.030;4.696;2023-04-24T09:41:02;17.17;;;11.43;;
16504;SDS011;8365;51.030;4.696;2023-04-24T09:43:35;19.33;;;12.70;;
16504;SDS011;8365;51.030;4.696;2023-04-24T09:46:06;23.90;;;13.77;;
16504;SDS011;8365;51.030;4.696;2023-04-24T09:48:38;19.77;;;12.50;;
16504;SDS011;8365;51.030;4.696;2023-04-24T09:51:09;17.37;;;12.43;;
16504;SDS011;8365;51.030;4.696;2023-04-24T09:53:46;19.33;;;12.27;;
16504;SDS011;8365;51.030;4.696;2023-04-24T09:56:17;18.73;;;12.47;;
16504;SDS011;8365;51.030;4.696;2023-04-24T09:58:48;16.20;;;12.17;;
16504;SDS011;8365;51.030;4.696;2023-04-24T10:01:30;18.20;;;13.00;;
16504;SDS011;8365;51.030;4.696;2023-04-24T10:04:02;14.53;;;9.90;;
16504;SDS011;8365;51.030;4.696;2023-04-24T10:06:35;12.07;;;8.67;;
16504;SDS011;8365;51.030;4.696;2023-04-24T10:09:06;13.27;;;8.57;;
16504;SDS011;8365;51.030;4.696;2023-04-24T10:11:36;7.67;;;6.53;;
16504;SDS011;8365;51.030;4.696;2023-04-24T10:14:07;12.30;;;7.03;;
16504;SDS011;8365;51.030;4.696;2023-04-24T10:16:41;10.17;;;8.60;;
16504;SDS011;8365;51.030;4.696;2023-04-24T10:19:13;12.13;;;8.90;;
16504;SDS011;8365;51.030;4.696;2023-04-24T10:21:45;12.07;;;9.40;;
16504;SDS011;8365;51.030;4.696;2023-04-24T10:24:19;8.97;;;7.50;;
16504;SDS011;8365;51.030;4.696;2023-04-24T10:26:52;10.73;;;8.10;;
16504;SDS011;8365;51.030;4.696;2023-04-24T10:29:24;9.30;;;7.13;;
16504;SDS011;8365;51.030;4.696;2023-04-24T10:31:54;10.37;;;6.07;;
16504;SDS011;8365;51.030;4.696;2023-04-24T10:34:25;10.30;;;6.83;;
16504;SDS011;8365;51.030;4.696;2023-04-24T10:36:55;12.23;;;6.30;;
16504;SDS011;8365;51.030;4.696;2023-04-24T10:39:27;8.73;;;6.13;;
16504;SDS011;8365;51.030;4.696;2023-04-24T10:41:57;10.17;;;6.40;;
16504;SDS011;8365;51.030;4.696;2023-04-24T10:44:35;7.00;;;4.90;;
16504;SDS011;8365;51.030;4.696;2023-04-24T10:47:07;8.90;;;4.13;;
16504;SDS011;8365;51.030;4.696;2023-04-24T10:49:44;7.77;;;4.23;;
16504;SDS011;8365;51.030;4.696;2023-04-24T10:52:15;7.70;;;4.17;;
16504;SDS011;8365;51.030;4.696;2023-04-24T10:54:46;7.93;;;4.73;;
16504;SDS011;8365;51.030;4.696;2023-04-24T11:00:09;7.47;;;4.90;;
16504;SDS011;8365;51.030;4.696;2023-04-24T11:02:46;7.20;;;5.70;;
16504;SDS011;8365;51.030;4.696;2023-04-24T11:05:22;10.00;;;5.70;;
16504;SDS011;8365;51.030;4.696;2023-04-24T11:08:21;8.33;;;5.77;;
16504;SDS011;8365;51.030;4.696;2023-04-24T11:19:09;12.10;;;7.10;;
16504;SDS011;8365;51.030;4.696;2023-04-24T11:27:44;10.33;;;6.73;;
16504;SDS011;8365;51.030;4.696;2023-04-24T11:30:19;15.30;;;7.67;;
16504;SDS011;8365;51.030;4.696;2023-04-24T11:32:51;8.80;;;6.53;;
16504;SDS011;8365;51.030;4.696;2023-04-24T11:35:22;10.33;;;5.93;;
16504;SDS011;8365;51.030;4.696;2023-04-24T11:37:54;9.67;;;6.47;;
16504;SDS011;8365;51.030;4.696;2023-04-24T11:40:25;7.97;;;5.40;;
16504;SDS011;8365;51.030;4.696;2023-04-24T11:42:55;9.83;;;6.67;;
16504;SDS011;8365;51.030;4.696;2023-04-24T11:45:27;10.07;;;6.60;;
16504;SDS011;8365;51.030;4.696;2023-04-24T11:47:58;10.07;;;6.37;;
16504;SDS011;8365;51.030;4.696;2023-04-24T11:50:29;8.53;;;6.60;;
16504;SDS011;8365;51.030;4.696;2023-04-24T11:53:00;9.20;;;6.93;;
16504;SDS011;8365;51.030;4.696;2023-04-24T11:55:33;11.70;;;6.60;;
16504;SDS011;8365;51.030;4.696;2023-04-24T11:58:05;12.07;;;6.87;;
16504;SDS011;8365;51.030;4.696;2023-04-24T12:00:36;9.60;;;6.90;;
16504;SDS011;8365;51.030;4.696;2023-04-24T12:03:11;7.97;;;6.20;;
16504;SDS011;8365;51.030;4.696;2023-04-24T12:05:42;6.87;;;5.63;;
16504;SDS011;8365;51.030;4.696;2023-04-24T12:08:26;9.37;;;6.80;;
16504;SDS011;8365;51.030;4.696;2023-04-24T12:11:02;9.90;;;6.33;;
16504;SDS011;8365;51.030;4.696;2023-04-24T12:13:34;10.00;;;6.60;;
16504;SDS011;8365;51.030;4.696;2023-04-24T12:16:07;6.37;;;5.70;;
16504;SDS011;8365;51.030;4.696;2023-04-24T12:18:44;7.07;;;5.70;;
16504;SDS011;8365;51.030;4.696;2023-04-24T12:23:50;9.37;;;6.23;;
16504;SDS011;8365;51.030;4.696;2023-04-24T12:26:20;8.10;;;6.27;;
16504;SDS011;8365;51.030;4.696;2023-04-24T12:28:52;8.83;;;6.40;;
16504;SDS011;8365;51.030;4.696;2023-04-24T12:31:23;7.27;;;5.83;;
16504;SDS011;8365;51.030;4.696;2023-04-24T12:33:53;8.40;;;6.23;;
16504;SDS011;8365;51.030;4.696;2023-04-24T12:36:25;7.30;;;5.93;;
16504;SDS011;8365;51.030;4.696;2023-04-24T12:38:56;6.47;;;5.50;;
16504;SDS011;8365;51.030;4.696;2023-04-24T12:41:30;7.53;;;6.00;;
16504;SDS011;8365;51.030;4.696;2023-04-24T12:44:00;7.27;;;5.23;;
16504;SDS011;8365;51.030;4.696;2023-04-24T12:46:31;7.83;;;5.47;;
16504;SDS011;8365;51.030;4.696;2023-04-24T12:49:01;6.50;;;5.13;;
16504;SDS011;8365;51.030;4.696;2023-04-24T12:51:32;8.37;;;5.50;;
16504;SDS011;8365;51.030;4.696;2023-04-24T12:54:02;6.97;;;5.57;;
16504;SDS011;8365;51.030;4.696;2023-04-24T12:56:33;6.70;;;5.10;;
16504;SDS011;8365;51.030;4.696;2023-04-24T12:59:03;5.20;;;4.10;;
16504;SDS011;8365;51.030;4.696;2023-04-24T13:01:34;5.17;;;3.93;;
16504;SDS011;8365;51.030;4.696;2023-04-24T13:04:05;5.33;;;3.93;;
16504;SDS011;8365;51.030;4.696;2023-04-24T13:06:35;5.23;;;4.50;;
16504;SDS011;8365;51.030;4.696;2023-04-24T13:09:06;7.87;;;4.70;;
16504;SDS011;8365;51.030;4.696;2023-04-24T13:11:37;4.33;;;3.93;;
16504;SDS011;8365;51.030;4.696;2023-04-24T13:14:07;4.20;;;3.43;;
16504;SDS011;8365;51.030;4.696;2023-04-24T13:16:38;4.53;;;3.40;;
16504;SDS011;8365;51.030;4.696;2023-04-24T13:19:08;4.73;;;3.70;;
16504;SDS011;8365;51.030;4.696;2023-04-24T13:21:38;7.27;;;4.80;;
16504;SDS011;8365;51.030;4.696;2023-04-24T13:24:09;7.37;;;4.90;;
16504;SDS011;8365;51.030;4.696;2023-04-24T13:26:40;5.20;;;4.57;;
16504;SDS011;8365;51.030;4.696;2023-04-24T13:29:10;6.95;;;4.82;;
16504;SDS011;8365;51.030;4.696;2023-04-24T13:31:41;5.63;;;4.80;;
16504;SDS011;8365;51.030;4.696;2023-04-24T13:34:11;5.60;;;4.93;;
16504;SDS011;8365;51.030;4.696;2023-04-24T13:36:42;6.80;;;4.90;;
16504;SDS011;8365;51.030;4.696;2023-04-24T13:39:13;5.37;;;4.60;;
16504;SDS011;8365;51.030;4.696;2023-04-24T13:41:43;4.63;;;4.20;;
16504;SDS011;8365;51.030;4.696;2023-04-24T13:44:15;5.47;;;4.67;;
16504;SDS011;8365;51.030;4.696;2023-04-24T13:46:47;4.97;;;3.97;;
16504;SDS011;8365;51.030;4.696;2023-04-24T13:49:18;5.30;;;3.43;;
16504;SDS011;8365;51.030;4.696;2023-04-24T13:51:50;4.27;;;3.63;;
16504;SDS011;8365;51.030;4.696;2023-04-24T13:54:21;3.47;;;3.13;;
16504;SDS011;8365;51.030;4.696;2023-04-24T13:56:53;6.37;;;3.13;;
16504;SDS011;8365;51.030;4.696;2023-04-24T13:59:26;6.93;;;3.42;;
16504;SDS011;8365;51.030;4.696;2023-04-24T14:01:56;5.13;;;3.40;;
16504;SDS011;8365;51.030;4.696;2023-04-24T14:04:27;5.40;;;3.53;;
16504;SDS011;8365;51.030;4.696;2023-04-24T14:06:57;6.15;;;3.83;;
16504;SDS011;8365;51.030;4.696;2023-04-24T14:09:28;4.72;;;3.90;;
16504;SDS011;8365;51.030;4.696;2023-04-24T14:11:59;4.43;;;4.03;;
16504;SDS011;8365;51.030;4.696;2023-04-24T14:14:31;5.63;;;4.40;;
16504;SDS011;8365;51.030;4.696;2023-04-24T14:17:02;4.27;;;3.87;;
16504;SDS011;8365;51.030;4.696;2023-04-24T14:19:32;6.28;;;4.32;;
16504;SDS011;8365;51.030;4.696;2023-04-24T14:22:02;4.57;;;4.13;;
16504;SDS011;8365;51.030;4.696;2023-04-24T14:24:35;5.73;;;4.40;;
16504;SDS011;8365;51.030;4.696;2023-04-24T14:27:08;5.03;;;3.80;;
16504;SDS011;8365;51.030;4.696;2023-04-24T14:29:39;3.70;;;3.40;;
16504;SDS011;8365;51.030;4.696;2023-04-24T14:32:09;3.20;;;2.90;;
16504;SDS011;8365;51.030;4.696;2023-04-24T14:34:40;3.35;;;2.60;;
16504;SDS011;8365;51.030;4.696;2023-04-24T14:37:11;2.97;;;2.55;;
16504;SDS011;8365;51.030;4.696;2023-04-24T14:39:42;4.57;;;2.58;;
16504;SDS011;8365;51.030;4.696;2023-04-24T14:42:15;3.67;;;2.53;;
16504;SDS011;8365;51.030;4.696;2023-04-24T14:44:47;3.43;;;2.43;;
16504;SDS011;8365;51.030;4.696;2023-04-24T14:47:18;3.33;;;2.50;;
16504;SDS011;8365;51.030;4.696;2023-04-24T14:49:51;4.90;;;2.50;;
16504;SDS011;8365;51.030;4.696;2023-04-24T14:52:22;4.10;;;2.53;;
16504;SDS011;8365;51.030;4.696;2023-04-24T14:54:52;3.63;;;2.60;;
16504;SDS011;8365;51.030;4.696;2023-04-24T14:57:22;2.70;;;2.20;;
16504;SDS011;8365;51.030;4.696;2023-04-24T14:59:53;3.87;;;2.47;;
16504;SDS011;8365;51.030;4.696;2023-04-24T15:02:23;3.53;;;2.53;;
16504;SDS011;8365;51.030;4.696;2023-04-24T15:04:54;2.97;;;2.43;;
16504;SDS011;8365;51.030;4.696;2023-04-24T15:07:24;3.43;;;2.57;;
16504;SDS011;8365;51.030;4.696;2023-04-24T15:09:56;2.90;;;2.50;;
16504;SDS011;8365;51.030;4.696;2023-04-24T15:12:26;2.33;;;2.10;;
16504;SDS011;8365;51.030;4.696;2023-04-24T15:14:58;3.63;;;2.25;;
16504;SDS011;8365;51.030;4.696;2023-04-24T15:17:29;3.10;;;2.13;;
16504;SDS011;8365;51.030;4.696;2023-04-24T15:20:00;4.37;;;2.33;;
16504;SDS011;8365;51.030;4.696;2023-04-24T15:22:30;3.77;;;2.20;;
16504;SDS011;8365;51.030;4.696;2023-04-24T15:25:01;2.70;;;2.20;;
16504;SDS011;8365;51.030;4.696;2023-04-24T15:30:13;2.50;;;2.30;;
16504;SDS011;8365;51.030;4.696;2023-04-24T15:32:46;5.80;;;2.57;;